createdAt,value
2022-12-31T00:01:32.688Z,100350.38
2022-12-31T00:06:42.630Z,100340.45
2022-12-31T00:11:50.950Z,100328.84
2022-12-31T00:16:58.679Z,100316.23
2022-12-31T00:22:06.134Z,100308.34
2022-12-31T00:27:13.350Z,100318.04
2022-12-31T00:32:20.542Z,100319.05
2022-12-31T00:37:27.818Z,100306.73
2022-12-31T00:42:35.223Z,100308.72
2022-12-31T00:47:43.095Z,100306.98
2022-12-31T00:52:50.375Z,100301.45
2022-12-31T00:57:57.708Z,100289.29
2022-12-31T01:03:05.258Z,100288.27
2022-12-31T01:08:12.890Z,100276.80
2022-12-31T01:13:20.167Z,100274.59
2022-12-31T01:18:27.395Z,100278.55
2022-12-31T01:23:34.766Z,100285.20
2022-12-31T01:28:42.490Z,100277.31
2022-12-31T01:33:50.775Z,100275.03
2022-12-31T01:38:59.365Z,100274.89
2022-12-31T01:44:43.729Z,100266.21
2022-12-31T01:49:54.990Z,100263.08
2022-12-31T01:55:10.053Z,100261.77
2022-12-31T02:00:18.519Z,100270.14
2022-12-31T02:05:33.059Z,100281.70
2022-12-31T02:10:40.249Z,100274.51
2022-12-31T02:15:58.746Z,100266.67
2022-12-31T02:21:29.987Z,100270.08
2022-12-31T02:26:55.374Z,100273.95
2022-12-31T02:32:06.988Z,100261.13
2022-12-31T02:37:15.903Z,100246.82
2022-12-31T02:42:23.188Z,100245.54
2022-12-31T02:47:44.759Z,100241.39
2022-12-31T02:53:00.162Z,100243.83
2022-12-31T02:58:16.060Z,100255.59
2022-12-31T03:03:23.858Z,100263.77
2022-12-31T03:08:31.658Z,100281.06
2022-12-31T03:13:38.855Z,100280.28
2022-12-31T03:18:59.864Z,100280.08
2022-12-31T03:24:24.891Z,100276.29
2022-12-31T03:29:32.675Z,100275.11
2022-12-31T03:34:41.036Z,100275.84
2022-12-31T03:39:48.417Z,100277.50
2022-12-31T03:44:55.658Z,100276.86
2022-12-31T03:50:02.908Z,100274.23
2022-12-31T03:55:11.943Z,100266.81
2022-12-31T04:00:22.806Z,100269.30
2022-12-31T04:05:30.150Z,100264.39
2022-12-31T04:10:37.464Z,100270.04
2022-12-31T04:15:44.651Z,100276.61
2022-12-31T04:20:52.006Z,100289.66
2022-12-31T04:25:59.285Z,100286.65
2022-12-31T04:31:06.679Z,100282.98
2022-12-31T04:36:14.190Z,100284.52
2022-12-31T04:41:22.689Z,100295.54
2022-12-31T04:46:32.649Z,100293.77
2022-12-31T04:51:40.320Z,100290.99
2022-12-31T04:56:47.616Z,100297.30
2022-12-31T05:01:55.507Z,100299.55
2022-12-31T05:07:01.325Z,100290.45
2022-12-31T05:12:09.179Z,100281.23
2022-12-31T05:17:16.461Z,100285.27
2022-12-31T05:22:40.373Z,100295.95
2022-12-31T05:27:48.147Z,100307.04
2022-12-31T05:32:55.546Z,100316.67
2022-12-31T05:38:04.443Z,100316.61
2022-12-31T05:43:11.798Z,100319.50
2022-12-31T05:48:19.030Z,100323.69
2022-12-31T05:53:26.238Z,100326.57
2022-12-31T05:58:33.553Z,100329.48
2022-12-31T06:03:42.177Z,100327.66
2022-12-31T06:08:53.982Z,100325.42
2022-12-31T06:14:01.320Z,100325.70
2022-12-31T06:19:10.336Z,100329.89
2022-12-31T06:24:17.619Z,100328.57
2022-12-31T06:29:24.854Z,100326.09
2022-12-31T06:34:34.682Z,100314.48
2022-12-31T06:39:42.182Z,100315.27
2022-12-31T06:44:49.325Z,100319.03
2022-12-31T06:49:56.605Z,100323.93
2022-12-31T06:55:05.105Z,100327.09
2022-12-31T07:00:14.808Z,100327.42
2022-12-31T07:05:41.116Z,100328.73
2022-12-31T07:10:57.376Z,100335.20
2022-12-31T07:16:14.958Z,100330.89
2022-12-31T07:21:31.459Z,100327.89
2022-12-31T07:27:11.713Z,100325.16
2022-12-31T07:32:32.239Z,100323.54
2022-12-31T07:37:50.686Z,100320.86
2022-12-31T07:43:10.082Z,100322.52
2022-12-31T07:48:27.905Z,100337.66
2022-12-31T07:53:36.119Z,100348.66
2022-12-31T07:58:59.386Z,100336.65
2022-12-31T08:04:15.456Z,100323.32
2022-12-31T08:09:35.071Z,100333.21
2022-12-31T08:14:48.280Z,100344.32
2022-12-31T08:19:56.638Z,100349.94
2022-12-31T08:25:15.574Z,100351.66
2022-12-31T08:30:25.106Z,100347.77
2022-12-31T08:35:44.435Z,100341.25
2022-12-31T08:40:58.661Z,100345.84
2022-12-31T08:46:14.420Z,100337.11
2022-12-31T08:51:24.622Z,100326.98
2022-12-31T08:56:35.164Z,100320.73
2022-12-31T09:01:52.277Z,100322.27
2022-12-31T09:07:03.672Z,100326.71
2022-12-31T09:12:19.567Z,100326.94
2022-12-31T09:17:46.752Z,100311.42
2022-12-31T09:22:55.933Z,100315.55
2022-12-31T09:28:15.815Z,100303.69
2022-12-31T09:33:37.866Z,100291.47
2022-12-31T09:38:52.756Z,100281.02
2022-12-31T09:44:37.693Z,100273.02
2022-12-31T09:50:13.890Z,100246.77
2022-12-31T09:55:35.281Z,100246.55
2022-12-31T10:00:52.612Z,100247.58
2022-12-31T10:06:15.906Z,100237.23
2022-12-31T10:11:35.146Z,100233.98
2022-12-31T10:17:00.888Z,100238.30
2022-12-31T10:22:24.642Z,100243.41
2022-12-31T10:27:51.160Z,100234.81
2022-12-31T10:33:16.704Z,100229.89
2022-12-31T10:38:39.312Z,100213.27
2022-12-31T10:44:12.225Z,100201.91
2022-12-31T10:49:49.199Z,100195.75
2022-12-31T10:55:34.847Z,100193.65
2022-12-31T11:00:49.634Z,100185.94
2022-12-31T11:06:48.715Z,100183.65
2022-12-31T11:12:12.589Z,100173.94
2022-12-31T11:17:32.622Z,100166.17
2022-12-31T11:22:57.995Z,100161.69
2022-12-31T11:28:36.258Z,100141.95
2022-12-31T11:41:17.495Z,100137.42
2022-12-31T11:47:02.531Z,100132.68
2022-12-31T11:52:41.959Z,100124.81
2022-12-31T11:57:52.004Z,100110.76
2022-12-31T12:03:07.334Z,100104.52
2022-12-31T12:08:20.750Z,100100.02
2022-12-31T12:13:29.586Z,100090.33
2022-12-31T12:18:42.016Z,100089.73
2022-12-31T12:23:59.976Z,100086.61
2022-12-31T12:29:18.451Z,100082.10
2022-12-31T12:34:27.755Z,100091.84
2022-12-31T12:39:36.144Z,100089.64
2022-12-31T12:44:43.528Z,100090.84
2022-12-31T12:49:55.266Z,100079.92
2022-12-31T12:55:21.259Z,100076.16
2022-12-31T13:00:34.153Z,100079.52
2022-12-31T13:05:56.663Z,100079.21
2022-12-31T13:11:19.044Z,100087.25
2022-12-31T13:16:36.914Z,100092.61
2022-12-31T13:21:51.434Z,100092.52
2022-12-31T13:27:12.291Z,100098.34
2022-12-31T13:32:26.899Z,100110.98
2022-12-31T13:37:42.932Z,100109.71
2022-12-31T13:42:57.684Z,100106.61
2022-12-31T13:48:20.859Z,100110.15
2022-12-31T13:53:36.759Z,100109.55
2022-12-31T13:58:51.275Z,100113.27
2022-12-31T14:04:06.305Z,100120.92
2022-12-31T14:09:19.857Z,100120.83
2022-12-31T14:14:42.322Z,100121.86
2022-12-31T14:20:00.801Z,100128.91
2022-12-31T14:25:22.998Z,100138.10
2022-12-31T14:30:34.089Z,100146.39
2022-12-31T14:35:53.625Z,100142.94
2022-12-31T14:41:13.460Z,100144.36
2022-12-31T14:46:31.230Z,100152.09
2022-12-31T14:51:40.099Z,100157.55
2022-12-31T14:56:48.036Z,100169.31
2022-12-31T15:01:54.072Z,100179.56
2022-12-31T15:07:09.925Z,100189.44
2022-12-31T15:12:34.463Z,100201.06
2022-12-31T15:17:54.250Z,100195.89
2022-12-31T15:23:02.081Z,100194.19
2022-12-31T15:28:09.330Z,100203.23
2022-12-31T15:33:27.320Z,100203.47
2022-12-31T15:38:38.035Z,100199.06
2022-12-31T15:43:51.892Z,100192.36
2022-12-31T15:49:07.841Z,100199.60
2022-12-31T15:54:26.075Z,100198.55
2022-12-31T15:59:35.752Z,100198.38
2022-12-31T16:04:44.762Z,100201.46
2022-12-31T16:09:55.160Z,100202.83
2022-12-31T16:15:05.302Z,100197.23
2022-12-31T16:20:27.562Z,100199.73
2022-12-31T16:25:35.588Z,100205.27
2022-12-31T16:30:45.865Z,100209.20
2022-12-31T16:36:01.098Z,100217.40
2022-12-31T16:41:19.599Z,100230.16
2022-12-31T16:46:30.957Z,100248.16
2022-12-31T16:51:41.999Z,100255.50
2022-12-31T16:57:12.119Z,100260.59
2022-12-31T17:02:24.499Z,100263.27
2022-12-31T17:07:41.871Z,100252.40
2022-12-31T17:13:27.096Z,100264.80
2022-12-31T17:18:24.245Z,100269.36
2022-12-31T17:23:36.225Z,100279.51
2022-12-31T17:28:47.550Z,100287.86
2022-12-31T17:34:03.156Z,100293.46
2022-12-31T17:39:20.139Z,100310.45
2022-12-31T17:44:29.981Z,100314.16
2022-12-31T17:49:37.899Z,100302.95
2022-12-31T17:54:45.361Z,100309.72
2022-12-31T17:59:52.841Z,100306.36
2022-12-31T18:05:00.176Z,100303.55
2022-12-31T18:10:08.320Z,100304.02
2022-12-31T18:15:18.279Z,100300.76
2022-12-31T18:20:26.863Z,100290.67
2022-12-31T18:25:34.225Z,100297.85
2022-12-31T18:30:42.150Z,100309.27
2022-12-31T18:36:08.119Z,100308.14
2022-12-31T18:41:19.965Z,100299.26
2022-12-31T18:46:28.421Z,100292.50
2022-12-31T18:51:35.906Z,100287.36
2022-12-31T18:56:47.168Z,100289.73
2022-12-31T19:01:56.830Z,100277.06
2022-12-31T19:07:04.250Z,100268.25
2022-12-31T19:12:15.124Z,100259.45
2022-12-31T19:17:22.555Z,100259.88
2022-12-31T19:22:29.909Z,100260.59
2022-12-31T19:27:37.455Z,100258.75
2022-12-31T19:32:44.741Z,100253.32
2022-12-31T19:37:53.577Z,100254.27
2022-12-31T19:43:00.888Z,100261.80
2022-12-31T19:48:11.852Z,100261.77
2022-12-31T19:53:22.308Z,100259.45
2022-12-31T19:58:31.338Z,100263.02
2022-12-31T20:04:36.313Z,100263.23
2022-12-31T20:09:44.581Z,100266.41
2022-12-31T20:14:53.107Z,100268.17
2022-12-31T20:20:01.774Z,100257.42
2022-12-31T20:25:11.189Z,100265.19
2022-12-31T20:30:21.115Z,100274.16
2022-12-31T20:35:29.854Z,100268.15
2022-12-31T20:40:44.569Z,100264.85
2022-12-31T20:45:54.756Z,100263.18
2022-12-31T20:51:02.932Z,100267.86
2022-12-31T20:56:11.611Z,100271.52
2022-12-31T21:01:22.279Z,100266.13
2022-12-31T21:06:31.704Z,100266.34
2022-12-31T21:12:02.327Z,100273.71
2022-12-31T21:17:31.727Z,100275.06
2022-12-31T21:22:40.643Z,100267.73
2022-12-31T21:27:48.716Z,100276.50
2022-12-31T21:32:56.892Z,100275.52
2022-12-31T21:38:05.814Z,100271.14
2022-12-31T21:43:14.737Z,100272.70
2022-12-31T21:48:23.650Z,100272.29
2022-12-31T21:53:36.607Z,100281.04
2022-12-31T21:58:47.258Z,100283.02
2022-12-31T22:03:55.300Z,100297.17
2022-12-31T22:09:03.670Z,100301.98
2022-12-31T22:14:12.182Z,100295.96
2022-12-31T22:19:20.570Z,100294.56
2022-12-31T22:24:31.396Z,100296.30
2022-12-31T22:29:39.619Z,100305.50
2022-12-31T22:34:47.713Z,100305.85
2022-12-31T22:39:56.013Z,100293.91
2022-12-31T22:45:04.238Z,100290.19
2022-12-31T22:50:12.756Z,100299.31
2022-12-31T22:55:22.075Z,100296.39
2022-12-31T23:07:05.582Z,100295.67
2022-12-31T23:12:14.687Z,100303.59
2022-12-31T23:17:42.731Z,100304.85
2022-12-31T23:23:09.448Z,100310.82
2022-12-31T23:28:21.436Z,100306.19
2022-12-31T23:33:30.740Z,100301.90
2022-12-31T23:38:41.719Z,100300.75
2022-12-31T23:43:53.284Z,100315.27
2022-12-31T23:49:05.677Z,100314.10
2022-12-31T23:54:14.965Z,100301.67
2022-12-31T23:59:22.312Z,100306.81
